Terminal Aerodrome Forecast
Issued by NWS

Home | Current Version | Previous Version | Text Only | Print | Product List | Glossary On
Versions: 1 2 3 4 5 6 7 8 9 10 11 12 13 14 15 16 17 18
796
FTUS46 KSTO 091725
TAFSMF
TAF
KSMF 091725Z 0918/1018 35004KT P6SM FEW250
      TEMPO 1013/1017 4SM BR=

USA.gov is the U.S. government's official web portal to all federal, state and local government web resources and services.